Downstream station:
SHEF ID: GCSO2 Cave Springs Br nr South W C
STATION TYPE:
STAGE STAGE(2) RIV-FLOW BAT-LOAD
ft ft cfs volt
Ccp-Rev Ccp-Rev Ccp-Rev Ccp-Rev
(US/Central)
04/01 00:00 1.58 4.75 0 12.41
04/01 01:00 1.55 4.73 0 12.33
04/01 02:00 1.53 4.72 0 12.33
04/01 03:00 1.51 4.71 0 12.33
04/01 04:00 1.49 4.73 0 12.25
04/01 05:00 1.47 4.73 0 12.25
04/01 06:00 1.44 4.72 0 12.25
04/01 07:00 1.43 4.73 0 12.17
04/01 08:00 1.49 4.71 0 12.17
04/01 09:00 1.90 4.72 0 12.25
04/01 10:00 2.62 4.71 0 13.13
04/01 11:00 3.16 4.71 0 13.21
04/01 12:00 3.47 4.71 0 13.21
04/01 13:00 3.62 4.71 0 13.21
04/01 14:00 3.77 4.70 0 13.21
04/01 15:00 3.75 4.71 0 13.21
04/01 16:00 3.74 4.72 0 13.21
04/01 17:00 3.82 4.71 0 13.21
04/01 18:00 3.79 4.69 0 13.29
04/01 19:00 3.55 4.69 0 13.37
04/01 20:00 3.10 4.70 0 12.97
04/01 21:00 2.88 4.71 0 ----
04/01 22:00 2.83 4.72 0 12.57
04/01 23:00 2.76 4.69 0 12.49